createdAt,value
2019-04-14T00:02:38.225Z,39.68
2019-04-14T00:05:08.324Z,39.75
2019-04-14T00:07:36.383Z,39.50
2019-04-14T00:10:05.040Z,39.60
2019-04-14T00:12:33.756Z,39.73
2019-04-14T00:15:02.508Z,39.29
2019-04-14T00:17:30.753Z,39.50
2019-04-14T00:19:58.882Z,39.50
2019-04-14T00:22:29.009Z,39.50
2019-04-14T00:24:57.522Z,39.45
2019-04-14T00:27:25.956Z,39.58
2019-04-14T00:29:54.590Z,39.45
2019-04-14T00:32:22.790Z,39.28
2019-04-14T00:35:04.586Z,39.49
2019-04-14T00:37:42.308Z,39.40
2019-04-14T00:40:14.959Z,39.52
2019-04-14T00:42:52.392Z,39.19
2019-04-14T00:45:40.297Z,39.32
2019-04-14T00:48:10.753Z,39.46
2019-04-14T00:50:34.457Z,39.33
2019-04-14T00:53:03.513Z,39.16
2019-04-14T00:55:31.627Z,39.34
2019-04-14T00:57:59.698Z,39.45
2019-04-14T01:00:27.747Z,39.55
2019-04-14T01:02:55.821Z,39.49
2019-04-14T01:05:24.132Z,39.25
2019-04-14T01:07:52.387Z,39.19
2019-04-14T01:10:21.320Z,39.29
2019-04-14T01:12:49.646Z,39.55
2019-04-14T01:15:17.935Z,39.39
2019-04-14T01:17:46.166Z,39.24
2019-04-14T01:20:14.605Z,39.17
2019-04-14T01:22:42.630Z,39.24
2019-04-14T01:25:10.707Z,39.23
2019-04-14T01:27:39.079Z,39.50
2019-04-14T01:30:07.102Z,39.18
2019-04-14T01:32:35.214Z,39.47
2019-04-14T01:35:03.457Z,39.21
2019-04-14T01:37:31.544Z,39.25
2019-04-14T01:39:59.572Z,39.25
2019-04-14T01:42:28.828Z,39.11
2019-04-14T01:44:57.093Z,39.02
2019-04-14T01:47:25.185Z,39.04
2019-04-14T01:49:53.210Z,39.01
2019-04-14T01:52:40.624Z,39.08
2019-04-14T01:55:26.600Z,39.22
2019-04-14T01:58:29.293Z,39.11
2019-04-14T02:01:14.960Z,39.02
2019-04-14T02:03:43.355Z,39.09
2019-04-14T02:06:11.511Z,39.12
2019-04-14T02:08:39.497Z,38.96
2019-04-14T02:11:07.661Z,39.12
2019-04-14T02:13:35.777Z,38.86
2019-04-14T02:16:15.177Z,39.17
2019-04-14T02:18:34.084Z,39.09
2019-04-14T02:21:02.246Z,39.11
2019-04-14T02:23:34.303Z,39.02
2019-04-14T02:26:02.586Z,38.89
2019-04-14T02:28:31.017Z,39.13
2019-04-14T02:31:10.266Z,38.92
2019-04-14T02:33:50.326Z,38.89
2019-04-14T02:41:29.651Z,39.11
2019-04-14T02:44:00.152Z,39.14
2019-04-14T02:46:20.474Z,38.94
2019-04-14T02:49:02.264Z,39.02
2019-04-14T02:53:57.634Z,39.05
2019-04-14T03:03:48.895Z,39.41
2019-04-14T03:06:25.777Z,39.49
2019-04-14T03:08:58.910Z,39.53
2019-04-14T03:11:25.381Z,39.50
2019-04-14T03:13:51.754Z,39.46
2019-04-14T03:16:29.614Z,39.47
2019-04-14T03:19:14.127Z,39.49
2019-04-14T03:22:21.043Z,39.56
2019-04-14T03:24:46.964Z,39.44
2019-04-14T03:27:39.835Z,39.49
2019-04-14T03:30:46.214Z,39.42
2019-04-14T03:35:58.855Z,39.26
2019-04-14T03:40:23.123Z,39.32
2019-04-14T03:45:25.663Z,39.41
2019-04-14T03:48:02.107Z,39.37
2019-04-14T03:50:21.090Z,39.37
2019-04-14T03:53:11.989Z,39.50
2019-04-14T03:55:05.771Z,39.51
2019-04-14T03:57:21.682Z,39.53
2019-04-14T03:59:50.013Z,39.44
2019-04-14T04:02:18.299Z,39.47
2019-04-14T04:04:46.725Z,39.41
2019-04-14T04:07:14.980Z,39.32
2019-04-14T04:09:49.638Z,39.36
2019-04-14T04:12:18.256Z,39.43
2019-04-14T04:14:46.489Z,39.41
2019-04-14T04:17:43.034Z,39.44
2019-04-14T04:20:34.998Z,39.38
2019-04-14T04:23:20.522Z,39.56
2019-04-14T04:26:06.147Z,39.48
2019-04-14T04:29:05.079Z,39.52
2019-04-14T04:31:54.741Z,39.50
2019-04-14T04:34:40.271Z,39.58
2019-04-14T04:37:14.848Z,39.43
2019-04-14T04:39:45.349Z,39.46
2019-04-14T04:42:13.495Z,39.39
2019-04-14T04:44:42.153Z,39.38
2019-04-14T04:47:10.229Z,39.57
2019-04-14T04:49:38.376Z,39.55
2019-04-14T04:52:06.547Z,39.47
2019-04-14T04:54:34.567Z,39.48
2019-04-14T04:57:02.608Z,39.64
2019-04-14T04:59:30.662Z,39.52
2019-04-14T05:01:58.686Z,39.44
2019-04-14T05:04:26.724Z,39.45
2019-04-14T05:06:54.816Z,39.38
2019-04-14T05:09:38.845Z,39.52
2019-04-14T05:12:34.906Z,39.43
2019-04-14T05:15:22.646Z,39.42
2019-04-14T05:17:51.742Z,39.54
2019-04-14T05:20:20.294Z,39.72
2019-04-14T05:22:48.704Z,39.50
2019-04-14T05:25:16.823Z,39.53
2019-04-14T05:27:45.229Z,39.40
2019-04-14T05:30:13.354Z,39.49
2019-04-14T05:32:41.382Z,39.62
2019-04-14T05:35:09.760Z,39.71
2019-04-14T05:37:37.897Z,39.53
2019-04-14T05:40:08.652Z,39.52
2019-04-14T05:42:36.681Z,39.52
2019-04-14T05:45:06.742Z,39.51
2019-04-14T05:47:35.022Z,39.49
2019-04-14T05:50:03.224Z,39.63
2019-04-14T05:52:31.869Z,39.53
2019-04-14T05:55:00.129Z,39.42
2019-04-14T05:57:28.433Z,39.51
2019-04-14T05:59:57.021Z,39.40
2019-04-14T06:02:27.787Z,39.38
2019-04-14T06:04:55.036Z,39.40
2019-04-14T06:07:23.161Z,39.53
2019-04-14T06:09:51.244Z,39.21
2019-04-14T06:12:19.283Z,39.38
2019-04-14T06:14:47.333Z,39.22
2019-04-14T06:17:15.642Z,39.54
2019-04-14T06:19:43.756Z,39.30
2019-04-14T06:22:11.808Z,39.27
2019-04-14T06:24:39.908Z,39.18
2019-04-14T06:27:07.981Z,39.16
2019-04-14T06:29:36.000Z,39.19
2019-04-14T06:32:22.804Z,39.20
2019-04-14T06:35:08.378Z,39.15
2019-04-14T06:38:01.207Z,38.94
2019-04-14T06:40:32.381Z,38.88
2019-04-14T06:43:00.412Z,39.11
2019-04-14T06:45:28.498Z,38.95
2019-04-14T06:47:56.555Z,39.02
2019-04-14T06:50:24.585Z,38.92
2019-04-14T06:52:52.639Z,38.99
2019-04-14T06:55:20.664Z,39.10
2019-04-14T06:57:48.696Z,39.29
2019-04-14T07:00:16.741Z,38.99
2019-04-14T07:02:45.471Z,39.17
2019-04-14T07:05:14.571Z,38.37
2019-04-14T07:07:42.649Z,39.02
2019-04-14T07:10:10.742Z,39.90
2019-04-14T07:12:38.751Z,39.23
2019-04-14T07:15:06.880Z,40.02
2019-04-14T07:17:35.016Z,42.29
2019-04-14T07:20:03.115Z,42.11
2019-04-14T07:22:31.150Z,42.26
2019-04-14T07:24:59.240Z,41.80
2019-04-14T07:27:27.305Z,42.41
2019-04-14T07:30:13.976Z,41.67
2019-04-14T07:33:08.373Z,40.91
2019-04-14T07:35:53.641Z,41.57
2019-04-14T07:38:33.075Z,40.75
2019-04-14T07:41:14.826Z,40.19
2019-04-14T07:44:19.824Z,40.49
2019-04-14T07:47:00.739Z,40.47
2019-04-14T07:49:50.552Z,41.05
2019-04-14T07:52:43.175Z,40.39
2019-04-14T07:55:45.012Z,39.82
2019-04-14T07:58:25.438Z,39.96
2019-04-14T08:00:59.241Z,41.10
2019-04-14T08:03:46.023Z,40.14
2019-04-14T08:06:14.103Z,39.97
2019-04-14T08:08:42.174Z,40.38
2019-04-14T08:11:10.262Z,39.18
2019-04-14T08:13:38.349Z,39.06
2019-04-14T08:16:06.382Z,39.44
2019-04-14T08:18:34.438Z,39.75
2019-04-14T08:21:02.555Z,39.82
2019-04-14T08:23:30.685Z,39.08
2019-04-14T08:25:58.751Z,39.01
2019-04-14T08:28:26.873Z,38.91
2019-04-14T08:30:54.949Z,38.62
2019-04-14T08:33:23.062Z,38.85
2019-04-14T08:35:51.092Z,39.48
2019-04-14T08:38:19.426Z,39.42
2019-04-14T08:40:47.568Z,38.69
2019-04-14T08:43:33.204Z,38.44
2019-04-14T08:46:25.850Z,39.05
2019-04-14T08:49:01.647Z,38.56
2019-04-14T08:51:48.409Z,38.73
2019-04-14T08:54:33.581Z,38.58
2019-04-14T08:57:13.540Z,39.42
2019-04-14T09:00:06.486Z,38.79
2019-04-14T09:02:53.249Z,39.16
2019-04-14T09:05:40.425Z,38.50
2019-04-14T09:08:12.580Z,38.65
2019-04-14T09:10:43.195Z,38.94
2019-04-14T09:13:11.265Z,38.42
2019-04-14T09:15:39.458Z,38.33
2019-04-14T09:18:07.760Z,38.95
2019-04-14T09:20:35.881Z,38.33
2019-04-14T09:23:03.936Z,38.07
2019-04-14T09:25:32.222Z,38.65
2019-04-14T09:28:00.369Z,38.72
2019-04-14T09:30:28.387Z,38.56
2019-04-14T09:32:56.446Z,38.52
2019-04-14T09:35:24.501Z,38.25
2019-04-14T09:37:52.559Z,38.64
2019-04-14T09:40:20.606Z,38.65
2019-04-14T09:42:48.659Z,39.28
2019-04-14T09:45:16.705Z,38.52
2019-04-14T09:47:44.733Z,39.10
2019-04-14T09:50:12.854Z,39.41
2019-04-14T09:52:41.291Z,38.76
2019-04-14T09:55:09.508Z,39.05
2019-04-14T09:57:37.616Z,39.13
2019-04-14T10:00:06.575Z,39.28
2019-04-14T10:02:34.772Z,39.50
2019-04-14T10:05:02.995Z,39.63
2019-04-14T10:07:31.132Z,38.89
2019-04-14T10:09:59.158Z,39.97
2019-04-14T10:12:27.280Z,38.39
2019-04-14T10:14:55.368Z,38.35
2019-04-14T10:17:23.717Z,38.33
2019-04-14T10:19:52.024Z,38.35
2019-04-14T10:22:20.071Z,39.02
2019-04-14T10:24:48.120Z,38.94
2019-04-14T10:27:16.293Z,40.49
2019-04-14T10:29:44.333Z,40.31
2019-04-14T10:32:12.361Z,39.41
2019-04-14T10:34:40.425Z,39.11
2019-04-14T10:37:08.477Z,38.96
2019-04-14T10:39:36.566Z,39.59
2019-04-14T10:42:04.627Z,39.87
2019-04-14T10:44:32.702Z,38.85
2019-04-14T10:47:00.849Z,42.18
2019-04-14T10:49:28.945Z,42.05
2019-04-14T10:51:57.077Z,47.99
2019-04-14T10:54:25.141Z,51.22
2019-04-14T10:56:53.190Z,52.18
2019-04-14T10:59:21.259Z,54.66
2019-04-14T11:01:49.327Z,55.53
2019-04-14T11:04:17.350Z,53.62
2019-04-14T11:07:07.448Z,56.09
2019-04-14T11:09:35.506Z,57.09
2019-04-14T11:12:03.657Z,57.32
2019-04-14T11:14:31.731Z,57.48
2019-04-14T11:16:59.827Z,56.25
2019-04-14T11:19:27.895Z,56.08
2019-04-14T11:21:55.962Z,56.22
2019-04-14T11:24:24.264Z,57.24
2019-04-14T11:26:52.397Z,57.21
2019-04-14T11:29:20.462Z,57.74
2019-04-14T11:32:02.298Z,57.68
2019-04-14T11:34:36.754Z,57.56
2019-04-14T11:37:32.422Z,57.59
2019-04-14T11:40:00.477Z,56.50
2019-04-14T11:42:28.534Z,58.33
2019-04-14T11:44:56.586Z,58.68
2019-04-14T11:47:24.767Z,58.81
2019-04-14T11:49:52.798Z,57.96
2019-04-14T11:52:20.854Z,58.35
2019-04-14T11:54:49.026Z,57.88
2019-04-14T11:57:17.082Z,58.73
2019-04-14T12:00:01.703Z,58.95
2019-04-14T12:02:48.489Z,58.61
2019-04-14T12:05:38.246Z,58.02
2019-04-14T12:08:18.742Z,57.96
2019-04-14T12:10:46.883Z,55.96
2019-04-14T12:13:14.963Z,55.95
2019-04-14T12:15:42.996Z,56.40
2019-04-14T12:18:11.071Z,56.41
2019-04-14T12:20:39.360Z,56.96
2019-04-14T12:23:07.505Z,57.41
2019-04-14T12:25:35.752Z,57.29
2019-04-14T12:28:04.750Z,57.69
2019-04-14T12:30:33.354Z,58.23
2019-04-14T12:33:01.523Z,58.89
2019-04-14T12:35:29.580Z,58.30
2019-04-14T12:37:57.601Z,57.02
2019-04-14T12:40:25.671Z,57.78
2019-04-14T12:43:09.616Z,56.71
2019-04-14T12:46:12.650Z,56.63
2019-04-14T12:49:05.429Z,56.67
2019-04-14T12:51:39.237Z,58.06
2019-04-14T12:54:07.276Z,59.29
2019-04-14T12:56:35.337Z,58.72
2019-04-14T12:59:23.321Z,58.55
2019-04-14T13:02:07.033Z,57.92
2019-04-14T13:04:35.081Z,56.88
2019-04-14T13:07:03.243Z,57.80
2019-04-14T13:09:31.275Z,53.88
2019-04-14T13:11:59.391Z,55.12
2019-04-14T13:14:27.626Z,53.94
2019-04-14T13:16:55.714Z,54.83
2019-04-14T13:19:23.763Z,56.45
2019-04-14T13:21:51.905Z,56.99
2019-04-14T13:24:20.054Z,59.02
2019-04-14T13:26:48.088Z,58.41
2019-04-14T13:29:16.185Z,58.71
2019-04-14T13:31:44.302Z,57.87
2019-04-14T13:34:12.356Z,57.55
2019-04-14T13:36:40.498Z,56.96
2019-04-14T13:39:08.724Z,56.68
2019-04-14T13:41:36.744Z,55.86
2019-04-14T13:44:04.811Z,56.00
2019-04-14T13:46:32.847Z,55.67
2019-04-14T13:49:01.288Z,55.58
2019-04-14T13:51:29.391Z,55.56
2019-04-14T13:53:57.562Z,55.71
2019-04-14T13:56:25.611Z,56.05
2019-04-14T13:58:53.659Z,56.34
2019-04-14T14:01:21.709Z,57.04
2019-04-14T14:03:49.734Z,56.18
2019-04-14T14:06:17.844Z,57.19
2019-04-14T14:08:45.985Z,56.24
2019-04-14T14:11:23.396Z,56.03
2019-04-14T14:13:59.861Z,55.69
2019-04-14T14:16:54.556Z,55.67
2019-04-14T14:19:30.580Z,57.63
2019-04-14T14:22:17.435Z,58.95
2019-04-14T14:24:48.847Z,59.48
2019-04-14T14:27:16.897Z,60.24
2019-04-14T14:29:44.949Z,61.14
2019-04-14T14:32:19.849Z,61.26
2019-04-14T14:34:57.817Z,60.61
2019-04-14T14:37:25.819Z,61.53
2019-04-14T14:39:53.860Z,61.36
2019-04-14T14:42:22.158Z,61.58
2019-04-14T14:45:02.866Z,60.80
2019-04-14T14:47:32.133Z,61.18
2019-04-14T14:50:17.342Z,60.96
2019-04-14T14:52:45.583Z,61.62
2019-04-14T14:55:13.729Z,62.53
2019-04-14T14:57:41.822Z,61.19
2019-04-14T15:00:15.502Z,62.22
2019-04-14T15:02:43.560Z,62.02
2019-04-14T15:05:11.642Z,62.12
2019-04-14T15:07:39.735Z,62.39
2019-04-14T15:10:07.917Z,62.07
2019-04-14T15:12:36.012Z,61.77
2019-04-14T15:15:04.171Z,59.93
2019-04-14T15:17:32.173Z,58.55
2019-04-14T15:20:00.245Z,58.04
2019-04-14T15:22:28.488Z,52.90
2019-04-14T15:24:56.573Z,52.09
2019-04-14T15:27:24.619Z,51.89
2019-04-14T15:29:52.703Z,52.13
2019-04-14T15:32:20.809Z,50.66
2019-04-14T15:34:48.929Z,50.45
2019-04-14T15:37:16.993Z,45.90
2019-04-14T15:39:45.097Z,50.26
2019-04-14T15:42:13.155Z,49.01
2019-04-14T15:44:41.232Z,49.66
2019-04-14T15:47:09.298Z,49.50
2019-04-14T15:49:37.350Z,48.53
2019-04-14T15:52:05.402Z,50.25
2019-04-14T15:54:33.506Z,51.08
2019-04-14T15:57:10.400Z,51.48
2019-04-14T15:59:48.513Z,51.79
2019-04-14T16:02:25.318Z,51.98
2019-04-14T16:04:59.645Z,51.80
2019-04-14T16:07:44.437Z,50.87
2019-04-14T16:10:23.326Z,51.82
2019-04-14T16:13:22.427Z,51.37
2019-04-14T16:16:15.053Z,50.87
2019-04-14T16:18:59.259Z,51.07
2019-04-14T16:21:27.479Z,51.08
2019-04-14T16:23:55.730Z,50.65
2019-04-14T16:26:45.365Z,51.46
2019-04-14T16:29:25.976Z,50.34
2019-04-14T16:32:11.335Z,50.82
2019-04-14T16:34:45.816Z,50.28
2019-04-14T16:37:13.854Z,50.45
2019-04-14T16:39:41.968Z,50.19
2019-04-14T16:42:10.029Z,50.36
2019-04-14T16:44:38.073Z,50.17
2019-04-14T16:47:06.175Z,49.47
2019-04-14T16:49:34.346Z,48.41
2019-04-14T16:52:19.815Z,47.84
2019-04-14T16:54:54.368Z,47.00
2019-04-14T16:57:41.176Z,46.52
2019-04-14T17:00:10.678Z,46.16
2019-04-14T17:02:38.737Z,46.95
2019-04-14T17:05:06.782Z,46.37
2019-04-14T17:07:34.874Z,46.00
2019-04-14T17:10:03.156Z,45.21
2019-04-14T17:12:31.176Z,44.89
2019-04-14T17:15:24.161Z,45.12
2019-04-14T17:18:26.101Z,45.28
2019-04-14T17:21:05.398Z,45.36
2019-04-14T17:23:37.656Z,44.50
2019-04-14T17:26:21.744Z,45.01
2019-04-14T17:29:08.508Z,44.49
2019-04-14T17:31:48.697Z,44.77
2019-04-14T17:34:22.273Z,44.50
2019-04-14T17:37:11.964Z,42.49
2019-04-14T17:39:53.301Z,41.06
2019-04-14T17:42:27.458Z,40.91
2019-04-14T17:45:00.295Z,41.02
2019-04-14T17:47:51.732Z,41.01
2019-04-14T17:50:41.804Z,41.72
2019-04-14T17:53:29.198Z,40.93
2019-04-14T17:56:07.282Z,39.71
2019-04-14T17:58:47.399Z,39.77
2019-04-14T18:01:37.265Z,40.53
2019-04-14T18:04:21.363Z,41.33
2019-04-14T18:06:57.191Z,40.90
2019-04-14T18:09:43.991Z,44.80
2019-04-14T18:12:30.930Z,47.80
2019-04-14T18:15:23.813Z,48.32
2019-04-14T18:18:16.551Z,48.59
2019-04-14T18:20:50.385Z,49.19
2019-04-14T18:23:18.443Z,49.60
2019-04-14T18:25:46.525Z,49.99
2019-04-14T18:28:23.892Z,50.40
2019-04-14T18:30:59.932Z,50.08
2019-04-14T18:33:33.046Z,49.91
2019-04-14T18:36:07.999Z,50.13
2019-04-14T18:38:58.165Z,50.37
2019-04-14T18:41:37.642Z,50.23
2019-04-14T18:44:27.212Z,50.40
2019-04-14T18:47:12.638Z,49.30
2019-04-14T18:50:02.635Z,50.49
2019-04-14T18:53:01.780Z,50.38
2019-04-14T18:55:48.676Z,50.24
2019-04-14T18:58:42.026Z,50.09
2019-04-14T19:01:18.403Z,50.54
2019-04-14T19:03:46.634Z,45.17
2019-04-14T19:06:15.032Z,44.59
2019-04-14T19:08:44.191Z,46.04
2019-04-14T19:11:31.077Z,45.22
2019-04-14T19:13:59.721Z,45.45
2019-04-14T19:16:39.386Z,45.32
2019-04-14T19:19:01.943Z,44.23
2019-04-14T19:21:31.630Z,44.69
2019-04-14T19:23:59.798Z,45.27
2019-04-14T19:26:27.954Z,46.08
2019-04-14T19:28:56.006Z,45.67
2019-04-14T19:31:24.025Z,46.50
2019-04-14T19:33:52.163Z,46.06
2019-04-14T19:36:20.190Z,46.21
2019-04-14T19:38:48.226Z,45.80
2019-04-14T19:41:16.406Z,46.10
2019-04-14T19:43:44.440Z,46.98
2019-04-14T19:46:12.460Z,46.80
2019-04-14T19:48:40.509Z,47.29
2019-04-14T19:51:08.693Z,46.75
2019-04-14T19:53:36.730Z,46.12
2019-04-14T19:56:04.754Z,46.27
2019-04-14T19:58:35.729Z,46.09
2019-04-14T20:01:03.849Z,46.44
2019-04-14T20:03:32.064Z,47.59
2019-04-14T20:06:00.301Z,47.39
2019-04-14T20:08:28.608Z,47.17
2019-04-14T20:10:57.600Z,47.26
2019-04-14T20:13:29.962Z,47.25
2019-04-14T20:16:15.171Z,48.16
2019-04-14T20:19:10.195Z,47.61
2019-04-14T20:21:55.160Z,47.28
2019-04-14T20:24:33.010Z,47.22
2019-04-14T20:27:28.896Z,46.78
2019-04-14T20:29:58.874Z,47.07
2019-04-14T20:32:34.709Z,46.42
2019-04-14T20:35:02.849Z,46.92
2019-04-14T20:37:31.031Z,46.57
2019-04-14T20:39:59.138Z,46.94
2019-04-14T20:42:27.209Z,46.93
2019-04-14T20:44:55.431Z,46.67
2019-04-14T20:47:23.583Z,47.01
2019-04-14T20:49:51.620Z,46.95
2019-04-14T20:52:20.005Z,46.82
2019-04-14T20:54:48.244Z,46.53
2019-04-14T20:57:16.333Z,45.94
2019-04-14T20:59:44.856Z,47.55
2019-04-14T21:02:47.078Z,46.16
2019-04-14T21:05:39.697Z,46.34
2019-04-14T21:08:25.313Z,46.79
2019-04-14T21:11:05.282Z,45.64
2019-04-14T21:13:55.152Z,45.94
2019-04-14T21:16:34.829Z,45.12
2019-04-14T21:19:09.654Z,45.76
2019-04-14T21:21:49.410Z,45.43
2019-04-14T21:24:42.502Z,45.94
2019-04-14T21:27:37.241Z,45.40
2019-04-14T21:30:16.511Z,44.97
2019-04-14T21:32:53.264Z,45.41
2019-04-14T21:35:31.031Z,45.04
2019-04-14T21:38:03.019Z,45.32
2019-04-14T21:40:49.077Z,45.91
2019-04-14T21:43:17.585Z,44.23
2019-04-14T21:45:45.786Z,45.23
2019-04-14T21:48:14.045Z,44.69
2019-04-14T21:50:42.179Z,43.76
2019-04-14T21:53:10.658Z,44.18
2019-04-14T21:55:38.772Z,47.44
2019-04-14T21:58:21.166Z,48.37
2019-04-14T22:01:10.988Z,47.62
2019-04-14T22:03:57.557Z,46.99
2019-04-14T22:06:30.874Z,47.91
2019-04-14T22:08:58.999Z,47.11
2019-04-14T22:11:27.695Z,46.79
2019-04-14T22:13:56.028Z,46.04
2019-04-14T22:16:24.173Z,46.71
2019-04-14T22:18:52.270Z,46.22
2019-04-14T22:21:20.556Z,46.59
2019-04-14T22:24:00.352Z,46.19
2019-04-14T22:26:26.061Z,45.70
2019-04-14T22:28:48.595Z,45.97
2019-04-14T22:31:16.823Z,45.71
2019-04-14T22:33:44.963Z,45.46
2019-04-14T22:36:13.077Z,45.42
2019-04-14T22:38:41.216Z,45.50
2019-04-14T22:41:09.681Z,45.43
2019-04-14T22:43:37.763Z,45.41
2019-04-14T22:46:05.982Z,45.94
2019-04-14T22:48:34.167Z,45.29
2019-04-14T22:51:02.269Z,45.36
2019-04-14T22:53:31.131Z,45.56
2019-04-14T22:55:59.433Z,45.77
2019-04-14T22:58:27.553Z,45.53
2019-04-14T23:01:11.762Z,45.02
2019-04-14T23:04:16.965Z,45.21
2019-04-14T23:07:06.685Z,44.73
2019-04-14T23:09:46.286Z,45.13
2019-04-14T23:12:38.808Z,45.01
2019-04-14T23:15:16.774Z,44.99
2019-04-14T23:18:06.375Z,45.04
2019-04-14T23:20:52.088Z,44.35
2019-04-14T23:23:34.251Z,44.81
2019-04-14T23:26:02.311Z,44.58
2019-04-14T23:28:30.427Z,44.38
2019-04-14T23:31:01.460Z,44.47
2019-04-14T23:33:28.261Z,44.25
2019-04-14T23:35:56.350Z,44.33
2019-04-14T23:38:24.431Z,44.43
2019-04-14T23:40:52.639Z,44.19
2019-04-14T23:43:20.675Z,44.05
2019-04-14T23:45:48.805Z,43.98
2019-04-14T23:48:16.856Z,44.74
2019-04-14T23:50:44.886Z,43.85
2019-04-14T23:53:12.929Z,43.62
2019-04-14T23:55:40.993Z,43.66
2019-04-14T23:58:09.148Z,43.59
